Time;durP1;ratioP1;P1;durP2;ratioP2;P2;SDS_P1;SDS_P2;PMS_P1;PMS_P2;Temp;Humidity;BMP_temperature;BMP_pressure;BME280_temperature;BME280_humidity;BME280_pressure;Samples;Min_cycle;Max_cycle;Signal;HPM_P1;HPM_P2
2022/03/09 00:00:19;;;;;;;27.83;12.88;;;-0.60;95.30;;;;;;5062783;28;20035;-71
2022/03/09 00:02:45;;;;;;;26.48;11.98;;;-0.60;94.70;;;;;;5063339;28;20033;-70
2022/03/09 00:05:11;;;;;;;30.10;14.32;;;-0.60;94.60;;;;;;5065251;28;20029;-71
2022/03/09 00:07:36;;;;;;;27.80;13.32;;;-0.50;94.30;;;;;;5068014;28;20151;-71
2022/03/09 00:10:04;;;;;;;26.60;12.65;;;-0.50;94.50;;;;;;5055475;28;20025;-71
2022/03/09 00:12:30;;;;;;;25.30;12.88;;;-0.50;94.60;;;;;;5062502;28;20013;-71
2022/03/09 00:14:56;;;;;;;29.92;11.05;;;-0.50;94.40;;;;;;5060357;28;20514;-70
2022/03/09 00:17:22;;;;;;;27.50;12.05;;;-0.60;94.50;;;;;;5066629;28;20103;-70
2022/03/09 00:19:47;;;;;;;34.35;13.70;;;-0.60;94.80;;;;;;5066014;28;20481;-70
2022/03/09 00:22:13;;;;;;;25.08;11.50;;;-0.60;94.80;;;;;;5064115;28;20055;-70
2022/03/09 00:24:39;;;;;;;21.65;10.68;;;-0.50;94.70;;;;;;5061347;28;20077;-70
2022/03/09 00:27:05;;;;;;;27.48;11.25;;;-0.60;94.80;;;;;;5060903;28;20024;-71
2022/03/09 00:29:30;;;;;;;22.70;10.00;;;-0.70;94.40;;;;;;5064979;28;20033;-71
2022/03/09 00:31:56;;;;;;;20.25;10.48;;;-0.70;94.80;;;;;;5073538;28;20122;-71
2022/03/09 00:34:21;;;;;;;23.75;10.05;;;-0.80;94.80;;;;;;5062362;28;20127;-71
2022/03/09 00:36:47;;;;;;;21.75;11.10;;;-0.80;95.20;;;;;;5060983;28;20052;-71
2022/03/09 00:39:13;;;;;;;22.42;11.25;;;-0.80;95.60;;;;;;5064658;28;20088;-71
2022/03/09 00:41:38;;;;;;;28.02;10.32;;;-0.90;95.40;;;;;;5062223;28;20041;-71
2022/03/09 00:44:05;;;;;;;18.77;9.13;;;-0.90;95.30;;;;;;5065586;28;20086;-71
2022/03/09 00:46:31;;;;;;;16.45;8.65;;;-0.90;96.00;;;;;;5071926;28;20025;-71
2022/03/09 00:48:56;;;;;;;18.95;9.55;;;-1.00;95.90;;;;;;5067434;28;20396;-71
2022/03/09 00:51:22;;;;;;;23.20;11.10;;;-1.00;96.40;;;;;;5070290;28;20091;-71
2022/03/09 00:53:48;;;;;;;19.42;10.18;;;-1.00;96.30;;;;;;5066116;28;20032;-71
2022/03/09 00:56:14;;;;;;;21.20;9.95;;;-1.10;96.20;;;;;;5061551;28;20123;-70
2022/03/09 00:58:41;;;;;;;21.15;9.85;;;-1.10;97.50;;;;;;5068321;28;20485;-71
2022/03/09 01:01:08;;;;;;;22.08;9.88;;;-1.20;97.30;;;;;;5062607;28;20096;-70
2022/03/09 01:03:34;;;;;;;22.42;10.35;;;-1.20;97.60;;;;;;5064324;28;20036;-70
2022/03/09 01:05:59;;;;;;;20.92;9.68;;;-1.20;98.30;;;;;;5068142;28;20384;-70
2022/03/09 01:08:25;;;;;;;22.20;10.73;;;-1.20;98.20;;;;;;5064905;28;20361;-70
2022/03/09 01:10:51;;;;;;;22.33;10.32;;;-1.30;97.70;;;;;;5063327;28;20032;-70
2022/03/09 01:13:16;;;;;;;20.80;10.82;;;-1.40;97.60;;;;;;5066184;28;20045;-70
2022/03/09 01:15:42;;;;;;;18.73;9.90;;;-1.40;98.10;;;;;;5065957;28;20037;-70
2022/03/09 01:18:08;;;;;;;22.35;11.23;;;-1.40;98.10;;;;;;5065689;28;20045;-71
2022/03/09 01:20:34;;;;;;;23.35;10.05;;;-1.40;98.00;;;;;;5060779;28;20028;-70
2022/03/09 01:22:59;;;;;;;21.25;10.02;;;-1.40;97.90;;;;;;5059370;28;20115;-71
2022/03/09 01:25:25;;;;;;;20.50;9.98;;;-1.40;98.00;;;;;;5068930;28;20533;-70
2022/03/09 01:27:51;;;;;;;23.25;9.02;;;-1.50;97.50;;;;;;5068512;28;20021;-71
2022/03/09 01:30:17;;;;;;;25.30;9.73;;;-1.50;97.20;;;;;;5062086;28;20036;-70
2022/03/09 01:32:43;;;;;;;20.77;9.70;;;-1.40;97.00;;;;;;5065676;28;20040;-70
2022/03/09 01:35:09;;;;;;;18.08;8.40;;;-1.40;96.60;;;;;;5062894;28;20024;-70
2022/03/09 01:37:35;;;;;;;21.63;9.88;;;-1.40;96.60;;;;;;5065105;28;20129;-70
2022/03/09 01:40:00;;;;;;;17.55;9.48;;;-1.40;96.60;;;;;;5065065;28;20096;-70
2022/03/09 01:42:26;;;;;;;22.23;9.93;;;-1.40;97.00;;;;;;5066572;28;20037;-70
2022/03/09 01:44:53;;;;;;;18.52;8.95;;;-1.40;97.10;;;;;;5069129;28;20036;-70
2022/03/09 01:47:18;;;;;;;21.45;9.70;;;-1.40;97.30;;;;;;5061224;28;20417;-70
2022/03/09 01:49:44;;;;;;;19.88;9.50;;;-1.40;97.80;;;;;;5062932;28;20036;-70
2022/03/09 01:52:12;;;;;;;21.35;9.77;;;-1.50;98.20;;;;;;5063318;28;20044;-71
2022/03/09 01:54:39;;;;;;;17.70;8.77;;;-1.50;98.40;;;;;;5067192;28;20520;-71
2022/03/09 01:57:05;;;;;;;20.58;8.77;;;-1.50;98.90;;;;;;5068781;28;20017;-71
2022/03/09 01:59:30;;;;;;;17.45;8.93;;;-1.50;99.30;;;;;;5061211;28;21096;-71
2022/03/09 02:01:57;;;;;;;18.17;8.52;;;-1.50;99.40;;;;;;5066622;28;20040;-70
2022/03/09 02:04:22;;;;;;;20.05;9.18;;;-1.50;99.40;;;;;;5061897;28;20016;-70
2022/03/09 02:06:48;;;;;;;18.08;9.57;;;-1.50;99.40;;;;;;5062195;28;20099;-71
2022/03/09 02:11:58;;;;;;;;;;;-1.50;99.10;;;;;;5069370;28;20090;-71
2022/03/09 02:14:27;;;;;;;24.42;9.00;;;-1.60;99.40;;;;;;5066331;28;20364;-71
2022/03/09 02:16:53;;;;;;;17.95;10.07;;;-1.60;99.30;;;;;;5064935;28;20087;-71
2022/03/09 02:19:18;;;;;;;23.83;10.32;;;-1.70;99.70;;;;;;5059263;28;20050;-71
2022/03/09 02:21:46;;;;;;;19.63;10.18;;;-1.70;99.60;;;;;;5062617;28;20054;-72
2022/03/09 02:24:13;;;;;;;17.67;8.48;;;-1.70;99.20;;;;;;5064035;28;20043;-72
2022/03/09 02:26:40;;;;;;;19.38;9.20;;;-1.80;99.00;;;;;;5063776;28;20481;-71
2022/03/09 02:29:05;;;;;;;18.45;9.77;;;-1.80;99.10;;;;;;5065955;28;20036;-72
2022/03/09 02:31:31;;;;;;;22.85;10.18;;;-1.90;99.20;;;;;;5066651;28;20389;-72
2022/03/09 02:33:57;;;;;;;16.15;9.30;;;-2.00;99.30;;;;;;5064742;28;20108;-72
2022/03/09 02:36:23;;;;;;;17.30;8.38;;;-2.10;99.70;;;;;;5062658;28;20506;-72
2022/03/09 02:38:48;;;;;;;18.08;8.50;;;-2.10;99.90;;;;;;5066331;28;20036;-72
2022/03/09 02:41:14;;;;;;;15.23;7.22;;;-2.10;99.90;;;;;;5065701;28;20063;-72
2022/03/09 02:43:40;;;;;;;18.40;9.45;;;-2.10;99.90;;;;;;5061220;28;20032;-72
2022/03/09 02:46:05;;;;;;;18.80;9.18;;;-2.10;99.90;;;;;;5062950;28;20025;-72
2022/03/09 02:48:31;;;;;;;21.83;8.98;;;-2.10;99.90;;;;;;5064232;28;20028;-72
2022/03/09 02:50:56;;;;;;;20.38;8.80;;;-2.10;99.90;;;;;;5065711;28;20051;-72
2022/03/09 02:53:22;;;;;;;29.65;11.25;;;-2.10;99.90;;;;;;5065877;28;20111;-71
2022/03/09 02:55:48;;;;;;;26.67;11.13;;;-2.10;99.90;;;;;;5065305;28;20182;-71
2022/03/09 02:58:13;;;;;;;22.40;9.90;;;-2.10;99.90;;;;;;5058473;28;20033;-71
2022/03/09 03:00:39;;;;;;;23.00;10.52;;;-2.00;99.90;;;;;;5060759;28;20505;-71
2022/03/09 03:03:05;;;;;;;27.25;10.50;;;-2.00;99.90;;;;;;5062794;28;20028;-71
2022/03/09 03:05:30;;;;;;;19.80;9.23;;;-2.10;99.90;;;;;;5064782;28;20016;-71
2022/03/09 03:07:56;;;;;;;18.45;8.32;;;-2.00;99.90;;;;;;5066043;28;20031;-71
2022/03/09 03:10:22;;;;;;;13.70;6.93;;;-2.00;99.90;;;;;;5064228;28;20024;-71
2022/03/09 03:12:47;;;;;;;18.05;7.22;;;-2.10;99.90;;;;;;5065686;28;20035;-71
2022/03/09 03:15:13;;;;;;;14.07;7.05;;;-2.10;99.90;;;;;;5059888;28;20939;-71
2022/03/09 03:17:39;;;;;;;17.75;6.68;;;-2.10;99.90;;;;;;5041120;28;20123;-72
2022/03/09 03:20:05;;;;;;;14.07;7.10;;;-2.10;99.90;;;;;;5057623;28;20087;-71
2022/03/09 03:22:31;;;;;;;17.48;7.18;;;-2.10;99.90;;;;;;5070285;28;20040;-71
2022/03/09 03:24:57;;;;;;;22.48;9.15;;;-2.10;99.90;;;;;;5066438;28;20055;-71
2022/03/09 03:27:22;;;;;;;22.25;9.57;;;-2.10;99.90;;;;;;5063720;28;20663;-71
2022/03/09 03:29:48;;;;;;;18.63;9.55;;;-2.20;99.90;;;;;;5063857;28;20021;-71
2022/03/09 03:32:13;;;;;;;22.55;10.50;;;-2.10;99.90;;;;;;5066666;28;20074;-71
2022/03/09 03:34:39;;;;;;;30.13;10.27;;;-2.20;99.90;;;;;;5065959;28;20021;-70
2022/03/09 03:37:05;;;;;;;20.85;9.38;;;-2.30;99.90;;;;;;5066902;28;20063;-71
2022/03/09 03:39:31;;;;;;;19.33;9.75;;;-2.30;99.90;;;;;;5064250;28;20025;-70
2022/03/09 03:41:57;;;;;;;23.92;10.35;;;-2.30;99.90;;;;;;5063686;28;20025;-71
2022/03/09 03:44:22;;;;;;;20.38;9.73;;;-2.30;99.90;;;;;;5062890;28;20108;-71
2022/03/09 03:46:48;;;;;;;24.75;10.73;;;-2.30;99.90;;;;;;5061237;28;20028;-71
2022/03/09 03:49:14;;;;;;;22.40;10.40;;;-2.40;99.90;;;;;;5065025;28;20077;-71
2022/03/09 03:51:39;;;;;;;22.10;11.00;;;-2.40;99.90;;;;;;5066419;28;20078;-71
2022/03/09 03:54:05;;;;;;;19.30;9.73;;;-2.40;99.90;;;;;;5069424;28;20130;-71
2022/03/09 03:56:31;;;;;;;21.85;10.02;;;-2.40;99.90;;;;;;5068331;28;20558;-71
2022/03/09 03:58:56;;;;;;;21.70;10.25;;;-2.50;99.90;;;;;;5069223;28;20024;-71
2022/03/09 04:01:22;;;;;;;19.23;9.85;;;-2.60;99.90;;;;;;5062437;28;20469;-71
2022/03/09 04:03:48;;;;;;;19.42;10.02;;;-2.70;99.90;;;;;;5060912;28;20025;-71
2022/03/09 04:06:13;;;;;;;19.85;9.88;;;-2.70;99.90;;;;;;5065251;28;20033;-71
2022/03/09 04:08:39;;;;;;;19.02;10.07;;;-2.70;99.90;;;;;;5060769;28;20036;-71
2022/03/09 04:11:05;;;;;;;22.00;9.73;;;-2.70;99.90;;;;;;5062735;28;20432;-71
2022/03/09 04:13:30;;;;;;;21.48;10.32;;;-2.80;99.90;;;;;;5064669;28;20025;-71
2022/03/09 04:15:56;;;;;;;17.67;9.30;;;-2.80;99.90;;;;;;5063683;28;20021;-71
2022/03/09 04:18:21;;;;;;;22.75;9.75;;;-2.80;99.90;;;;;;5063626;28;20029;-70
2022/03/09 04:20:47;;;;;;;19.45;8.60;;;-2.80;99.90;;;;;;5060909;28;20051;-71
2022/03/09 04:23:13;;;;;;;20.63;9.10;;;-2.90;99.90;;;;;;5062066;28;20021;-71
2022/03/09 04:25:39;;;;;;;18.38;10.00;;;-2.90;99.90;;;;;;5063979;28;20055;-71
2022/03/09 04:28:05;;;;;;;25.67;11.00;;;-2.90;99.90;;;;;;5068542;28;20075;-71
2022/03/09 04:30:32;;;;;;;24.38;10.80;;;-2.90;99.90;;;;;;5067732;28;20510;-71
2022/03/09 04:32:58;;;;;;;24.58;10.30;;;-2.90;99.90;;;;;;5059618;28;20718;-71
2022/03/09 04:35:23;;;;;;;16.10;8.88;;;-3.00;99.90;;;;;;5063971;28;20028;-71
2022/03/09 04:37:49;;;;;;;17.55;9.63;;;-3.00;99.90;;;;;;5069571;28;20043;-71
2022/03/09 04:40:16;;;;;;;20.33;9.63;;;-3.00;99.90;;;;;;5067149;28;20067;-71
2022/03/09 04:42:42;;;;;;;22.65;9.90;;;-3.00;99.90;;;;;;5069483;28;20454;-71
2022/03/09 04:45:09;;;;;;;24.40;10.80;;;-3.00;99.90;;;;;;5069547;28;20027;-71
2022/03/09 04:47:34;;;;;;;24.08;10.82;;;-3.00;99.90;;;;;;5076570;28;20020;-72
2022/03/09 04:50:01;;;;;;;22.30;10.90;;;-3.10;99.90;;;;;;5063798;28;20044;-71
2022/03/09 04:52:26;;;;;;;24.95;10.10;;;-3.10;99.90;;;;;;5062560;28;20033;-72
2022/03/09 04:54:52;;;;;;;16.88;8.10;;;-3.10;99.90;;;;;;5068356;28;20032;-71
2022/03/09 04:57:18;;;;;;;14.10;6.80;;;-3.10;99.90;;;;;;5069957;28;20448;-72
2022/03/09 04:59:44;;;;;;;16.17;6.80;;;-3.00;99.90;;;;;;5063070;28;20052;-71
2022/03/09 05:02:10;;;;;;;16.15;8.48;;;-3.00;99.90;;;;;;5067052;28;20468;-71
2022/03/09 05:04:35;;;;;;;14.60;6.65;;;-3.00;99.90;;;;;;5064345;28;20028;-71
2022/03/09 05:07:01;;;;;;;15.07;7.38;;;-3.00;99.90;;;;;;5070776;28;20024;-71
2022/03/09 05:09:27;;;;;;;14.50;7.07;;;-2.90;99.90;;;;;;5071658;28;20017;-72
2022/03/09 05:11:52;;;;;;;14.40;6.95;;;-2.90;99.90;;;;;;5069382;28;20036;-72
2022/03/09 05:14:18;;;;;;;14.90;6.80;;;-2.90;99.90;;;;;;5069348;28;20032;-72
2022/03/09 05:16:44;;;;;;;15.98;6.63;;;-3.00;99.90;;;;;;5062272;28;20412;-71
2022/03/09 05:19:10;;;;;;;18.42;7.07;;;-2.90;99.90;;;;;;5069306;28;20033;-71
2022/03/09 05:21:35;;;;;;;17.60;9.20;;;-3.00;99.90;;;;;;5062937;28;20029;-72
2022/03/09 05:24:01;;;;;;;22.33;10.25;;;-2.90;99.90;;;;;;5070496;28;20028;-71
2022/03/09 05:26:27;;;;;;;20.50;9.57;;;-2.90;99.90;;;;;;5069971;28;20090;-72
2022/03/09 05:28:53;;;;;;;23.40;11.20;;;-2.90;99.90;;;;;;5069362;28;20032;-72
2022/03/09 05:31:19;;;;;;;25.45;10.68;;;-2.90;99.90;;;;;;5062336;28;20039;-72
2022/03/09 05:33:45;;;;;;;23.27;11.38;;;-2.90;99.90;;;;;;5067307;28;20028;-73
2022/03/09 05:36:10;;;;;;;21.95;10.60;;;-2.90;99.90;;;;;;5064679;28;20056;-72
2022/03/09 05:38:36;;;;;;;25.35;10.75;;;-2.90;99.90;;;;;;5066175;28;20108;-72
2022/03/09 05:41:02;;;;;;;25.90;10.38;;;-3.00;99.90;;;;;;5062664;28;20725;-72
2022/03/09 05:43:27;;;;;;;21.27;11.00;;;-3.00;99.90;;;;;;5070802;28;20032;-72
2022/03/09 05:45:53;;;;;;;23.48;10.82;;;-3.00;99.90;;;;;;5070120;28;20093;-71
2022/03/09 05:48:19;;;;;;;21.67;10.50;;;-3.10;99.90;;;;;;5066996;28;20117;-71
2022/03/09 05:50:45;;;;;;;21.13;10.57;;;-3.10;99.90;;;;;;5066078;28;20028;-71
2022/03/09 05:53:10;;;;;;;21.33;11.13;;;-3.20;99.90;;;;;;5065018;28;20052;-71
2022/03/09 05:55:36;;;;;;;24.88;11.48;;;-3.20;99.90;;;;;;5069820;28;20025;-71
2022/03/09 05:58:02;;;;;;;24.00;11.02;;;-3.20;99.90;;;;;;5064996;28;20699;-71
2022/03/09 06:00:28;;;;;;;27.17;11.23;;;-3.30;99.90;;;;;;5064642;28;20036;-71
2022/03/09 06:02:53;;;;;;;24.73;11.23;;;-3.30;99.90;;;;;;5064025;28;20016;-71
2022/03/09 06:05:19;;;;;;;25.75;12.32;;;-3.30;99.90;;;;;;5067545;28;20093;-71
2022/03/09 06:07:45;;;;;;;29.20;13.23;;;-3.20;99.90;;;;;;5063709;28;20028;-71
2022/03/09 06:10:11;;;;;;;28.85;12.88;;;-3.20;99.90;;;;;;5065046;28;20032;-71
2022/03/09 06:12:37;;;;;;;26.08;11.38;;;-3.20;99.90;;;;;;5066945;28;20362;-71
2022/03/09 06:15:02;;;;;;;24.42;12.23;;;-3.10;99.90;;;;;;5067813;28;20536;-71
2022/03/09 06:17:28;;;;;;;31.25;12.05;;;-3.10;99.90;;;;;;5061625;28;20033;-71
2022/03/09 06:19:54;;;;;;;23.60;11.07;;;-3.10;99.90;;;;;;5064395;28;20045;-71
2022/03/09 06:22:19;;;;;;;24.52;12.38;;;-3.10;99.90;;;;;;5068311;28;20024;-70
2022/03/09 06:24:45;;;;;;;26.35;10.73;;;-3.00;99.90;;;;;;5063946;28;20116;-71
2022/03/09 06:27:11;;;;;;;25.90;11.65;;;-3.00;99.90;;;;;;5067555;28;20249;-71
2022/03/09 06:29:36;;;;;;;22.75;10.85;;;-2.90;99.90;;;;;;5066431;28;20025;-71
2022/03/09 06:32:02;;;;;;;31.30;14.38;;;-2.80;99.90;;;;;;5070171;28;20039;-70
2022/03/09 06:34:28;;;;;;;26.63;12.10;;;-2.80;99.90;;;;;;5067599;28;20028;-71
2022/03/09 06:36:54;;;;;;;21.25;11.05;;;-2.70;99.90;;;;;;5065743;28;20434;-71
2022/03/09 06:39:20;;;;;;;25.98;11.23;;;-2.70;99.90;;;;;;5064060;28;20083;-71
2022/03/09 06:41:46;;;;;;;25.90;11.50;;;-2.60;99.90;;;;;;5064059;28;20062;-71
2022/03/09 06:44:14;;;;;;;25.45;11.48;;;-2.60;99.90;;;;;;5066349;28;20044;-71
2022/03/09 06:46:41;;;;;;;28.13;11.02;;;-2.50;99.90;;;;;;5066618;28;20553;-72
2022/03/09 06:49:07;;;;;;;24.52;11.73;;;-2.50;99.90;;;;;;5064295;28;20465;-72
2022/03/09 06:51:32;;;;;;;22.95;11.05;;;-2.40;99.90;;;;;;5058560;28;20036;-71
2022/03/09 06:53:58;;;;;;;24.58;10.85;;;-2.30;99.90;;;;;;5070364;28;20028;-71
2022/03/09 06:56:24;;;;;;;23.17;10.55;;;-2.30;99.90;;;;;;5071693;28;20028;-70
2022/03/09 06:58:50;;;;;;;26.17;10.57;;;-2.20;99.90;;;;;;5065688;28;20527;-71
2022/03/09 07:01:16;;;;;;;30.95;12.10;;;-2.00;99.90;;;;;;5067375;28;20035;-71
2022/03/09 07:03:41;;;;;;;23.88;10.82;;;-2.00;99.90;;;;;;5069203;28;20411;-71
2022/03/09 07:06:07;;;;;;;27.48;12.13;;;-1.90;99.90;;;;;;5062922;28;20859;-71
2022/03/09 07:08:33;;;;;;;26.10;11.75;;;-1.80;99.90;;;;;;5062273;28;20508;-70
2022/03/09 07:11:01;;;;;;;26.35;11.30;;;-1.70;99.90;;;;;;5062228;28;20354;-70
2022/03/09 07:13:27;;;;;;;24.40;11.07;;;-1.60;99.90;;;;;;5061232;28;20033;-71
2022/03/09 07:15:52;;;;;;;28.85;11.35;;;-1.50;99.90;;;;;;5057074;28;20027;-72
2022/03/09 07:18:18;;;;;;;23.17;10.90;;;-1.50;99.90;;;;;;5057552;28;20046;-72
2022/03/09 07:20:44;;;;;;;30.65;11.85;;;-1.40;99.90;;;;;;5068644;28;20089;-70
2022/03/09 07:23:10;;;;;;;22.13;10.77;;;-1.40;99.90;;;;;;5057473;28;20449;-71
2022/03/09 07:25:36;;;;;;;24.15;11.13;;;-1.20;99.90;;;;;;5058538;28;20099;-72
2022/03/09 07:28:02;;;;;;;20.60;10.70;;;-1.20;99.90;;;;;;5060894;28;20016;-72
2022/03/09 07:30:28;;;;;;;21.30;10.20;;;-1.20;99.90;;;;;;5057719;28;20052;-71
2022/03/09 07:32:53;;;;;;;23.83;11.07;;;-1.10;99.90;;;;;;5064574;28;20902;-71
2022/03/09 07:35:20;;;;;;;21.67;11.10;;;-1.10;99.90;;;;;;5065574;28;20397;-72
2022/03/09 07:37:46;;;;;;;23.23;11.00;;;-1.10;99.90;;;;;;5068923;28;20028;-72
2022/03/09 07:40:11;;;;;;;26.30;10.48;;;-1.00;99.90;;;;;;5061301;28;20032;-72
2022/03/09 07:42:37;;;;;;;27.27;11.32;;;-0.90;99.90;;;;;;5060650;28;20052;-72
2022/03/09 07:45:06;;;;;;;25.20;10.88;;;-0.80;99.90;;;;;;5061937;28;20021;-72
2022/03/09 07:47:33;;;;;;;26.35;11.23;;;-0.70;99.80;;;;;;5057377;28;20017;-72
2022/03/09 07:49:59;;;;;;;21.23;10.38;;;-0.60;99.60;;;;;;5063540;28;20050;-72
2022/03/09 07:52:25;;;;;;;20.55;9.98;;;-0.60;98.90;;;;;;5057732;28;20032;-72
2022/03/09 07:54:50;;;;;;;22.48;10.88;;;-0.50;99.00;;;;;;5064396;28;20436;-72
2022/03/09 07:57:16;;;;;;;24.10;11.00;;;-0.50;98.40;;;;;;5060666;28;20028;-72
2022/03/09 07:59:42;;;;;;;29.05;11.70;;;-0.40;98.50;;;;;;5064882;28;20032;-72
2022/03/09 08:02:08;;;;;;;21.23;11.23;;;-0.30;98.40;;;;;;5061510;28;20508;-72
2022/03/09 08:04:34;;;;;;;23.50;11.05;;;-0.20;98.50;;;;;;5055394;28;20050;-73
2022/03/09 08:06:59;;;;;;;26.30;11.50;;;-0.10;98.20;;;;;;5061537;28;20099;-72
2022/03/09 08:09:25;;;;;;;23.15;11.52;;;0.00;97.90;;;;;;5068324;28;20059;-72
2022/03/09 08:11:51;;;;;;;26.48;11.70;;;-0.10;97.10;;;;;;5060981;28;20073;-72
2022/03/09 08:14:16;;;;;;;23.05;10.68;;;0.00;97.50;;;;;;5067366;28;20048;-72
2022/03/09 08:16:42;;;;;;;26.58;11.45;;;0.10;97.30;;;;;;5067076;28;20174;-72
2022/03/09 08:19:08;;;;;;;23.40;11.88;;;0.10;97.20;;;;;;5065863;28;20024;-72
2022/03/09 08:21:34;;;;;;;27.92;11.90;;;0.10;97.30;;;;;;5065905;28;20073;-72
2022/03/09 08:24:00;;;;;;;23.67;12.25;;;0.20;97.30;;;;;;5061420;28;20021;-73
2022/03/09 08:26:25;;;;;;;21.65;10.48;;;0.30;97.40;;;;;;5057255;28;20083;-73
2022/03/09 08:28:51;;;;;;;27.45;12.13;;;0.30;97.30;;;;;;5057941;28;20743;-72
2022/03/09 08:31:17;;;;;;;27.98;11.95;;;0.40;97.00;;;;;;5062080;28;20036;-72
2022/03/09 08:33:43;;;;;;;25.83;11.90;;;0.50;97.10;;;;;;5063625;28;20039;-72
2022/03/09 08:36:11;;;;;;;26.23;12.05;;;0.50;97.10;;;;;;5065654;28;20037;-73
2022/03/09 08:38:36;;;;;;;28.95;12.23;;;0.60;97.10;;;;;;5060874;28;20037;-72
2022/03/09 08:41:02;;;;;;;26.42;12.00;;;0.70;97.00;;;;;;5059809;28;20028;-73
2022/03/09 08:43:28;;;;;;;24.85;11.30;;;0.80;96.90;;;;;;5062206;28;20025;-72
2022/03/09 08:45:53;;;;;;;23.27;11.30;;;0.90;96.30;;;;;;5066195;28;20017;-72
2022/03/09 08:48:19;;;;;;;23.55;11.40;;;1.00;96.10;;;;;;5064751;28;20448;-72
2022/03/09 08:50:45;;;;;;;28.00;12.82;;;1.10;96.00;;;;;;5062344;28;20600;-73
2022/03/09 08:53:10;;;;;;;30.58;11.20;;;1.20;95.50;;;;;;5063862;28;20042;-72
2022/03/09 08:55:36;;;;;;;21.98;10.40;;;1.30;95.40;;;;;;5057353;28;20059;-72
2022/03/09 08:58:02;;;;;;;24.27;11.27;;;1.30;95.20;;;;;;5060748;28;20107;-73
2022/03/09 09:00:28;;;;;;;25.13;11.50;;;1.50;95.10;;;;;;5065678;28;20037;-73
2022/03/09 09:02:55;;;;;;;20.35;10.63;;;1.50;95.10;;;;;;5068470;28;20017;-73
2022/03/09 09:05:20;;;;;;;26.63;11.48;;;1.60;94.80;;;;;;5067755;28;20370;-73
2022/03/09 09:07:46;;;;;;;24.63;11.90;;;1.80;94.70;;;;;;5066675;28;20033;-73
2022/03/09 09:10:12;;;;;;;28.27;11.13;;;1.90;94.40;;;;;;5066594;28;20040;-73
2022/03/09 09:12:38;;;;;;;22.40;10.75;;;1.90;94.20;;;;;;5067164;28;20108;-73
2022/03/09 09:15:05;;;;;;;18.27;9.82;;;2.00;93.90;;;;;;5065413;28;20108;-73
2022/03/09 09:17:31;;;;;;;20.75;11.18;;;2.10;93.60;;;;;;5069597;28;20056;-73
2022/03/09 09:19:56;;;;;;;22.00;10.45;;;2.30;93.40;;;;;;5060538;28;20607;-73
2022/03/09 09:22:22;;;;;;;21.55;11.35;;;2.30;93.10;;;;;;5063224;28;20036;-73
2022/03/09 09:24:48;;;;;;;26.02;11.68;;;2.40;93.10;;;;;;5068929;28;20501;-73
2022/03/09 09:27:13;;;;;;;21.58;11.05;;;2.50;93.10;;;;;;5062394;28;20420;-72
2022/03/09 09:29:39;;;;;;;19.70;10.93;;;2.60;92.90;;;;;;5067470;28;20032;-73
2022/03/09 09:32:05;;;;;;;20.10;11.07;;;2.60;92.70;;;;;;5065556;28;20104;-73
2022/03/09 09:34:31;;;;;;;23.77;10.85;;;2.70;92.70;;;;;;5066248;28;20611;-74
2022/03/09 09:36:57;;;;;;;25.35;11.32;;;2.80;92.30;;;;;;5067565;28;20111;-72
2022/03/09 09:39:23;;;;;;;23.30;11.63;;;2.90;92.20;;;;;;5069231;28;20095;-72
2022/03/09 09:41:52;;;;;;;23.27;10.85;;;3.00;92.40;;;;;;5069330;28;20099;-71
2022/03/09 09:44:23;;;;;;;20.90;10.90;;;3.00;92.10;;;;;;5068100;28;20029;-71
2022/03/09 09:46:50;;;;;;;22.48;11.32;;;3.20;91.80;;;;;;5067058;28;20428;-73
2022/03/09 09:49:16;;;;;;;24.00;11.70;;;3.30;91.40;;;;;;5067520;28;20028;-73
2022/03/09 09:51:44;;;;;;;20.40;11.70;;;3.40;91.20;;;;;;5031883;28;20423;-73
2022/03/09 09:54:11;;;;;;;26.42;11.77;;;3.50;91.10;;;;;;5075314;28;20385;-73
2022/03/09 09:56:41;;;;;;;20.45;10.93;;;3.60;90.70;;;;;;5067924;28;20387;-70
2022/03/09 09:59:08;;;;;;;19.60;11.18;;;3.70;90.30;;;;;;5070955;28;20028;-73
2022/03/09 10:01:35;;;;;;;25.35;11.30;;;3.80;89.70;;;;;;5068640;28;20055;-73
2022/03/09 10:04:01;;;;;;;24.75;11.52;;;4.00;89.30;;;;;;5067016;28;20028;-73
2022/03/09 10:06:27;;;;;;;21.15;11.55;;;4.00;89.40;;;;;;5064241;28;20021;-75
2022/03/09 10:09:07;;;;;;;25.00;11.63;;;4.30;87.50;;;;;;5073500;28;20431;-74
2022/03/09 10:11:51;;;;;;;24.70;12.30;;;4.50;84.90;;;;;;5071506;28;20037;-73
2022/03/09 10:14:40;;;;;;;18.20;11.02;;;4.60;84.00;;;;;;5069938;28;20334;-74
2022/03/09 10:17:10;;;;;;;25.40;11.52;;;4.60;82.80;;;;;;5056392;28;20040;-73
2022/03/09 10:19:42;;;;;;;20.95;11.90;;;4.70;82.30;;;;;;5068382;28;20073;-72
2022/03/09 10:22:24;;;;;;;19.58;12.43;;;4.80;80.50;;;;;;5066894;28;20094;-72
2022/03/09 10:24:50;;;;;;;22.85;11.23;;;4.90;79.60;;;;;;5063204;28;20024;-71
2022/03/09 10:27:33;;;;;;;21.60;11.07;;;4.90;77.30;;;;;;5068591;28;20811;-73
2022/03/09 10:30:00;;;;;;;28.08;10.93;;;5.00;76.80;;;;;;5070360;28;20464;-72
2022/03/09 10:32:45;;;;;;;20.30;11.55;;;5.00;75.70;;;;;;5064576;28;20493;-71
2022/03/09 10:35:13;;;;;;;21.55;11.05;;;5.10;74.80;;;;;;5064103;28;20038;-73
2022/03/09 10:37:40;;;;;;;21.02;10.98;;;5.20;72.80;;;;;;5061580;28;20114;-72
2022/03/09 10:40:18;;;;;;;26.50;11.23;;;5.30;71.70;;;;;;5061301;28;20497;-72
2022/03/09 10:42:43;;;;;;;26.00;12.05;;;5.30;71.20;;;;;;5067006;28;20020;-73
2022/03/09 10:45:10;;;;;;;20.52;11.05;;;5.40;69.60;;;;;;5070096;28;20115;-73
2022/03/09 10:47:49;;;;;;;26.80;12.35;;;5.60;69.50;;;;;;5068422;28;20043;-72
2022/03/09 10:50:23;;;;;;;23.00;11.70;;;5.50;69.50;;;;;;5060726;28;20036;-72
2022/03/09 10:52:55;;;;;;;24.52;11.98;;;5.70;67.20;;;;;;5066705;28;20016;-73
2022/03/09 10:55:32;;;;;;;23.27;11.60;;;5.70;67.00;;;;;;5065179;28;20033;-74
2022/03/09 10:58:20;;;;;;;22.25;10.80;;;5.90;65.20;;;;;;5068849;28;20111;-73
2022/03/09 11:00:49;;;;;;;22.65;10.77;;;6.10;64.60;;;;;;5065844;28;20041;-73
2022/03/09 11:03:16;;;;;;;25.17;11.05;;;6.20;63.40;;;;;;5064298;28;20392;-74
2022/03/09 11:05:52;;;;;;;22.13;11.95;;;6.30;63.40;;;;;;5068336;28;20025;-73
2022/03/09 11:08:38;;;;;;;21.33;10.82;;;6.40;62.40;;;;;;5066278;28;20036;-75
2022/03/09 11:11:06;;;;;;;24.73;12.10;;;6.50;61.50;;;;;;5065543;28;20086;-74
2022/03/09 11:13:34;;;;;;;21.15;11.13;;;6.50;61.10;;;;;;5062950;28;20066;-74
2022/03/09 11:16:00;;;;;;;22.85;12.30;;;6.40;61.10;;;;;;5067313;28;20035;-73
2022/03/09 11:18:30;;;;;;;22.67;12.02;;;6.50;59.90;;;;;;5065088;28;20032;-74
2022/03/09 11:21:07;;;;;;;26.02;12.07;;;6.60;60.00;;;;;;5068037;28;20035;-74
2022/03/09 11:23:37;;;;;;;27.02;11.95;;;6.70;59.10;;;;;;5065287;28;20028;-73
2022/03/09 11:26:14;;;;;;;24.42;11.70;;;6.70;58.90;;;;;;5063168;28;20052;-74
2022/03/09 11:28:42;;;;;;;25.27;12.30;;;6.80;57.80;;;;;;5064435;28;20029;-73
2022/03/09 11:31:13;;;;;;;25.08;12.20;;;6.90;57.70;;;;;;5066732;28;20420;-73
2022/03/09 11:33:48;;;;;;;28.05;13.40;;;6.90;56.70;;;;;;5066298;28;20036;-72
2022/03/09 11:36:29;;;;;;;22.17;11.57;;;7.00;57.00;;;;;;5066296;28;20060;-72
2022/03/09 11:39:17;;;;;;;23.40;12.25;;;6.90;56.20;;;;;;5063895;28;20081;-72
2022/03/09 11:41:46;;;;;;;23.23;11.75;;;7.00;54.50;;;;;;5063141;28;20073;-71
2022/03/09 11:44:21;;;;;;;21.20;11.93;;;7.00;54.30;;;;;;5062433;28;20388;-73
2022/03/09 11:46:59;;;;;;;21.33;11.20;;;6.90;55.10;;;;;;5060337;28;20048;-71
2022/03/09 11:49:45;;;;;;;22.33;11.35;;;7.00;54.00;;;;;;5064077;28;20783;-73
2022/03/09 11:52:16;;;;;;;19.77;10.40;;;7.10;53.60;;;;;;5069125;28;20078;-72
2022/03/09 11:55:01;;;;;;;20.52;10.52;;;7.10;52.60;;;;;;5064359;28;20090;-72
2022/03/09 11:57:56;;;;;;;22.50;10.43;;;7.30;51.40;;;;;;5065851;28;20032;-73
2022/03/09 12:00:22;;;;;;;20.85;10.55;;;7.30;50.90;;;;;;5059777;28;20105;-73
2022/03/09 12:02:56;;;;;;;22.83;11.48;;;7.30;50.70;;;;;;5065097;28;20663;-71
2022/03/09 12:05:25;;;;;;;;;;;7.40;51.00;;;;;;5063091;28;20065;-72
2022/03/09 12:08:01;;;;;;;21.48;10.02;;;7.50;50.60;;;;;;5056404;28;20023;-75
2022/03/09 12:10:56;;;;;;;24.63;12.20;;;7.50;50.90;;;;;;5058991;28;21268;-72
2022/03/09 12:13:27;;;;;;;23.45;11.52;;;7.50;50.80;;;;;;5056716;28;20493;-72
2022/03/09 12:15:59;;;;;;;25.70;11.73;;;7.50;50.40;;;;;;5066958;28;20032;-74
2022/03/09 12:18:38;;;;;;;19.70;10.77;;;7.70;50.20;;;;;;5064116;28;20025;-73
2022/03/09 12:21:05;;;;;;;20.90;10.45;;;7.70;49.50;;;;;;5064527;28;20507;-70
2022/03/09 12:23:32;;;;;;;38.17;12.98;;;7.70;50.00;;;;;;5058613;28;20090;-72
2022/03/09 12:25:58;;;;;;;20.30;11.57;;;7.80;50.00;;;;;;5063884;28;20027;-73
2022/03/09 12:28:31;;;;;;;24.77;11.88;;;7.80;49.20;;;;;;5065189;28;20107;-72
2022/03/09 12:31:06;;;;;;;21.15;11.43;;;7.80;49.30;;;;;;5063253;28;20020;-69
2022/03/09 12:33:37;;;;;;;28.13;12.32;;;7.80;48.60;;;;;;5060869;28;20067;-72
2022/03/09 12:36:24;;;;;;;19.88;11.50;;;8.00;47.50;;;;;;5061092;28;20384;-73